createdAt,value
2018-02-23T00:01:32.834Z,26.73
2018-02-23T00:04:00.416Z,22.08
2018-02-23T00:06:28.352Z,24.23
2018-02-23T00:08:55.916Z,31.65
2018-02-23T00:11:24.250Z,23.58
2018-02-23T00:13:51.831Z,26.30
2018-02-23T00:16:20.134Z,20.60
2018-02-23T00:18:47.728Z,23.87
2018-02-23T00:21:15.361Z,21.92
2018-02-23T00:23:42.914Z,25.10
2018-02-23T00:26:10.482Z,24.70
2018-02-23T00:28:38.183Z,24.30
2018-02-23T00:31:05.730Z,22.10
2018-02-23T00:33:33.276Z,22.67
2018-02-23T00:36:00.924Z,22.70
2018-02-23T00:38:28.490Z,26.90
2018-02-23T00:40:56.054Z,28.38
2018-02-23T00:43:23.657Z,23.98
2018-02-23T00:45:51.184Z,27.35
2018-02-23T00:48:18.702Z,26.23
2018-02-23T00:50:46.241Z,32.78
2018-02-23T00:53:14.648Z,30.60
2018-02-23T00:55:42.211Z,29.85
2018-02-23T00:58:10.587Z,30.00
2018-02-23T01:00:38.163Z,35.97
2018-02-23T01:03:05.706Z,26.75
2018-02-23T01:05:34.187Z,29.55
2018-02-23T01:08:01.737Z,24.90
2018-02-23T01:10:29.588Z,32.00
2018-02-23T01:12:57.169Z,26.45
2018-02-23T01:15:24.725Z,30.20
2018-02-23T01:17:52.252Z,28.15
2018-02-23T01:20:19.790Z,34.28
2018-02-23T01:22:47.341Z,30.30
2018-02-23T01:25:14.920Z,28.25
2018-02-23T01:27:42.470Z,26.77
2018-02-23T01:30:10.062Z,28.75
2018-02-23T01:32:37.632Z,28.27
2018-02-23T01:35:05.904Z,26.08
2018-02-23T01:37:33.441Z,31.62
2018-02-23T01:40:01.025Z,29.35
2018-02-23T01:42:29.537Z,31.45
2018-02-23T01:44:57.889Z,30.35
2018-02-23T01:47:25.410Z,33.40
2018-02-23T01:49:53.074Z,28.27
2018-02-23T01:52:20.607Z,30.15
2018-02-23T01:54:48.147Z,29.98
2018-02-23T01:57:16.521Z,30.27
2018-02-23T01:59:44.108Z,29.23
2018-02-23T02:02:12.283Z,34.40
2018-02-23T02:04:39.846Z,34.88
2018-02-23T02:07:08.300Z,37.00
2018-02-23T02:09:35.879Z,38.45
2018-02-23T02:12:04.574Z,38.75
2018-02-23T02:14:32.140Z,38.58
2018-02-23T02:16:59.752Z,31.65
2018-02-23T02:19:27.316Z,40.22
2018-02-23T02:21:54.877Z,43.75
2018-02-23T02:24:23.246Z,40.05
2018-02-23T02:26:50.840Z,34.63
2018-02-23T02:29:18.378Z,33.03
2018-02-23T02:31:46.000Z,42.78
2018-02-23T02:34:14.312Z,41.13
2018-02-23T02:36:41.908Z,39.50
2018-02-23T02:39:10.214Z,50.60
2018-02-23T02:41:37.826Z,40.53
2018-02-23T02:44:05.414Z,34.33
2018-02-23T02:46:33.762Z,40.33
2018-02-23T02:49:02.674Z,45.70
2018-02-23T02:51:30.487Z,38.13
2018-02-23T02:53:58.046Z,39.03
2018-02-23T02:56:25.609Z,40.22
2018-02-23T02:58:53.136Z,40.30
2018-02-23T03:01:21.495Z,45.38
2018-02-23T03:03:49.101Z,36.63
2018-02-23T03:06:16.667Z,34.95
2018-02-23T03:08:44.249Z,39.03
2018-02-23T03:11:11.782Z,37.35
2018-02-23T03:13:39.418Z,40.38
2018-02-23T03:16:07.767Z,35.42
2018-02-23T03:18:35.365Z,41.17
2018-02-23T03:21:02.934Z,39.15
2018-02-23T03:23:32.148Z,41.85
2018-02-23T03:25:59.710Z,43.58
2018-02-23T03:28:27.252Z,44.22
2018-02-23T03:30:55.397Z,48.00
2018-02-23T03:33:22.937Z,44.38
2018-02-23T03:35:50.446Z,41.42
2018-02-23T03:38:17.982Z,47.67
2018-02-23T03:40:45.540Z,48.28
2018-02-23T03:43:13.070Z,41.25
2018-02-23T03:45:40.702Z,41.60
2018-02-23T03:48:08.243Z,54.45
2018-02-23T03:50:35.797Z,52.58
2018-02-23T03:53:03.367Z,48.72
2018-02-23T03:55:30.906Z,43.45
2018-02-23T03:57:58.483Z,49.10
2018-02-23T04:00:26.029Z,53.15
2018-02-23T04:02:53.658Z,40.80
2018-02-23T04:05:21.641Z,48.25
2018-02-23T04:07:49.205Z,45.50
2018-02-23T04:10:16.730Z,43.03
2018-02-23T04:12:44.267Z,52.42
2018-02-23T04:15:12.688Z,50.58
2018-02-23T04:17:40.271Z,52.78
2018-02-23T04:20:08.571Z,49.15
2018-02-23T04:22:36.132Z,52.80
2018-02-23T04:25:04.045Z,51.47
2018-02-23T04:27:31.596Z,58.42
2018-02-23T04:29:59.287Z,58.92
2018-02-23T04:32:26.884Z,46.05
2018-02-23T04:34:54.422Z,47.47
2018-02-23T04:37:22.788Z,46.10
2018-02-23T04:39:51.487Z,49.35
2018-02-23T04:42:19.781Z,56.35
2018-02-23T04:44:48.598Z,46.47
2018-02-23T04:47:16.191Z,49.08
2018-02-23T04:49:43.756Z,57.80
2018-02-23T04:52:11.393Z,55.33
2018-02-23T04:54:39.541Z,55.95
2018-02-23T04:57:07.861Z,56.10
2018-02-23T04:59:35.602Z,52.80
2018-02-23T05:02:03.907Z,59.95
2018-02-23T05:04:36.656Z,57.35
2018-02-23T05:07:04.296Z,43.17
2018-02-23T05:09:31.902Z,52.65
2018-02-23T05:11:59.511Z,61.53
2018-02-23T05:14:27.073Z,52.28
2018-02-23T05:16:56.296Z,49.70
2018-02-23T05:19:23.880Z,58.40
2018-02-23T05:21:52.193Z,47.10
2018-02-23T05:24:20.541Z,46.63
2018-02-23T05:26:48.385Z,52.35
2018-02-23T05:29:16.740Z,51.35
2018-02-23T05:31:45.068Z,48.78
2018-02-23T05:34:12.950Z,42.95
2018-02-23T05:36:40.524Z,53.20
2018-02-23T05:39:09.706Z,54.15
2018-02-23T05:41:37.303Z,53.83
2018-02-23T05:44:05.207Z,54.42
2018-02-23T05:46:34.904Z,58.40
2018-02-23T05:49:02.507Z,50.67
2018-02-23T05:51:30.843Z,44.72
2018-02-23T05:53:58.413Z,51.03
2018-02-23T05:56:28.091Z,38.78
2018-02-23T05:58:55.628Z,48.03
2018-02-23T06:01:24.202Z,39.00
2018-02-23T06:03:52.758Z,48.25
2018-02-23T06:06:21.112Z,40.80
2018-02-23T06:08:48.829Z,44.70
2018-02-23T06:11:16.392Z,42.25
2018-02-23T06:13:44.005Z,51.80
2018-02-23T06:16:17.892Z,51.65
2018-02-23T06:18:51.216Z,46.65
2018-02-23T06:21:19.485Z,41.72
2018-02-23T06:23:47.771Z,44.72
2018-02-23T06:26:15.376Z,45.72
2018-02-23T06:28:42.933Z,39.90
2018-02-23T06:31:11.277Z,52.03
2018-02-23T06:33:38.884Z,50.25
2018-02-23T06:36:06.427Z,38.10
2018-02-23T06:38:34.770Z,40.15
2018-02-23T06:41:02.895Z,41.25
2018-02-23T06:43:31.480Z,46.78
2018-02-23T06:45:59.044Z,39.33
2018-02-23T06:48:26.584Z,34.53
2018-02-23T06:50:54.159Z,32.33
2018-02-23T06:53:21.727Z,35.72
2018-02-23T06:55:55.399Z,30.92
2018-02-23T06:58:22.944Z,38.63
2018-02-23T07:00:50.876Z,44.78
2018-02-23T07:03:19.285Z,41.25
2018-02-23T07:05:46.977Z,35.75
2018-02-23T07:08:14.763Z,34.03
2018-02-23T07:10:43.169Z,37.60
2018-02-23T07:13:10.809Z,34.75
2018-02-23T07:15:38.362Z,35.45
2018-02-23T07:18:05.928Z,34.10
2018-02-23T07:20:33.552Z,31.52
2018-02-23T07:23:01.151Z,38.28
2018-02-23T07:25:28.801Z,35.17
2018-02-23T07:27:56.368Z,29.85
2018-02-23T07:30:23.928Z,26.00
2018-02-23T07:32:51.518Z,35.58
2018-02-23T07:35:19.870Z,35.47
2018-02-23T07:37:47.478Z,43.80
2018-02-23T07:40:15.920Z,41.75
2018-02-23T07:42:43.517Z,27.27
2018-02-23T07:45:11.874Z,34.25
2018-02-23T07:47:39.421Z,35.00
2018-02-23T07:50:07.005Z,32.17
2018-02-23T07:52:35.442Z,28.08
2018-02-23T07:55:04.226Z,24.67
2018-02-23T07:57:31.832Z,26.02
2018-02-23T07:59:59.483Z,21.23
2018-02-23T08:02:27.055Z,25.33
2018-02-23T08:04:54.578Z,22.35
2018-02-23T08:07:22.153Z,32.65
2018-02-23T08:09:49.693Z,22.27
2018-02-23T08:12:17.285Z,23.50
2018-02-23T08:14:44.894Z,26.17
2018-02-23T08:17:13.154Z,22.85
2018-02-23T08:19:41.511Z,28.40
2018-02-23T08:22:09.108Z,14.40
2018-02-23T08:24:36.692Z,26.73
2018-02-23T08:27:04.258Z,19.52
2018-02-23T08:29:32.632Z,23.95
2018-02-23T08:32:00.216Z,21.62
2018-02-23T08:34:27.853Z,23.30
2018-02-23T08:36:55.421Z,17.40
2018-02-23T08:39:23.042Z,15.52
2018-02-23T08:41:50.631Z,25.55
2018-02-23T08:44:19.087Z,26.67
2018-02-23T08:46:47.468Z,19.85
2018-02-23T08:49:15.011Z,38.20
2018-02-23T08:51:42.588Z,17.65
2018-02-23T08:54:10.110Z,15.98
2018-02-23T08:56:37.729Z,22.60
2018-02-23T08:59:05.257Z,27.50
2018-02-23T09:01:32.885Z,27.13
2018-02-23T09:04:00.544Z,18.60
2018-02-23T09:06:28.138Z,22.50
2018-02-23T09:08:55.776Z,16.48
2018-02-23T09:11:23.303Z,17.23
2018-02-23T09:13:51.644Z,17.62
2018-02-23T09:16:19.155Z,20.85
2018-02-23T09:18:46.774Z,18.02
2018-02-23T09:21:15.268Z,16.33
2018-02-23T09:23:42.823Z,16.45
2018-02-23T09:26:11.150Z,15.55
2018-02-23T09:28:38.762Z,22.37
2018-02-23T09:31:06.378Z,20.92
2018-02-23T09:33:46.005Z,19.50
2018-02-23T09:36:13.574Z,23.35
2018-02-23T09:38:41.141Z,21.20
2018-02-23T09:41:08.738Z,17.37
2018-02-23T09:43:36.315Z,15.70
2018-02-23T09:46:04.071Z,24.77
2018-02-23T09:48:31.706Z,18.10
2018-02-23T09:50:59.439Z,15.77
2018-02-23T09:53:27.047Z,14.32
2018-02-23T09:55:54.586Z,12.85
2018-02-23T09:58:22.835Z,13.55
2018-02-23T10:00:50.417Z,16.98
2018-02-23T10:03:18.859Z,18.12
2018-02-23T10:05:47.166Z,14.02
2018-02-23T10:08:15.714Z,18.30
2018-02-23T10:10:43.349Z,8.13
2018-02-23T10:13:10.899Z,17.95
2018-02-23T10:15:38.505Z,14.32
2018-02-23T10:18:06.040Z,15.45
2018-02-23T10:20:33.600Z,9.23
2018-02-23T10:23:01.159Z,15.23
2018-02-23T10:25:28.680Z,9.15
2018-02-23T10:27:56.223Z,12.80
2018-02-23T10:30:23.738Z,15.82
2018-02-23T10:32:51.316Z,8.48
2018-02-23T10:35:18.855Z,11.07
2018-02-23T10:37:46.401Z,9.20
2018-02-23T10:40:13.956Z,7.80
2018-02-23T10:42:41.529Z,14.13
2018-02-23T10:45:10.038Z,7.40
2018-02-23T10:47:37.571Z,10.98
2018-02-23T10:50:05.135Z,8.38
2018-02-23T10:52:32.710Z,7.18
2018-02-23T10:55:00.271Z,7.20
2018-02-23T10:57:28.593Z,5.93
2018-02-23T10:59:56.124Z,10.50
2018-02-23T11:02:23.681Z,14.87
2018-02-23T11:04:51.265Z,7.82
2018-02-23T11:07:18.857Z,15.60
2018-02-23T11:09:46.469Z,8.30
2018-02-23T11:12:14.944Z,12.00
2018-02-23T11:14:42.493Z,8.52
2018-02-23T11:17:10.039Z,12.88
2018-02-23T11:19:38.409Z,17.92
2018-02-23T11:22:06.740Z,12.65
2018-02-23T11:24:34.335Z,11.95
2018-02-23T11:27:01.909Z,14.60
2018-02-23T11:29:29.485Z,8.10
2018-02-23T11:31:57.124Z,9.13
2018-02-23T11:34:25.069Z,17.37
2018-02-23T11:36:53.765Z,13.15
2018-02-23T11:39:21.328Z,11.85
2018-02-23T11:41:48.977Z,11.30
2018-02-23T11:44:16.556Z,13.38
2018-02-23T11:46:44.178Z,9.85
2018-02-23T11:49:11.721Z,12.23
2018-02-23T11:51:40.110Z,12.37
2018-02-23T11:54:07.643Z,14.35
2018-02-23T11:56:35.957Z,15.75
2018-02-23T11:59:03.563Z,15.90
2018-02-23T12:01:31.103Z,12.90
2018-02-23T12:03:58.652Z,20.55
2018-02-23T12:06:26.216Z,16.92
2018-02-23T12:08:53.788Z,12.52
2018-02-23T12:11:21.387Z,17.77
2018-02-23T12:13:48.985Z,15.48
2018-02-23T12:16:17.669Z,16.12
2018-02-23T12:18:45.216Z,14.55
2018-02-23T12:21:12.772Z,11.45
2018-02-23T12:23:40.348Z,15.18
2018-02-23T12:26:08.898Z,22.75
2018-02-23T12:28:36.506Z,23.08
2018-02-23T12:31:04.112Z,14.23
2018-02-23T12:33:32.553Z,15.18
2018-02-23T12:36:00.369Z,11.88
2018-02-23T12:38:28.045Z,18.95
2018-02-23T12:40:57.527Z,11.45
2018-02-23T12:43:25.158Z,12.32
2018-02-23T12:45:52.732Z,12.57
2018-02-23T12:48:20.374Z,14.43
2018-02-23T12:50:47.918Z,16.27
2018-02-23T12:53:15.472Z,32.03
2018-02-23T12:55:43.127Z,14.70
2018-02-23T12:58:11.435Z,10.07
2018-02-23T13:00:38.965Z,13.48
2018-02-23T13:03:07.371Z,12.55
2018-02-23T13:05:34.916Z,12.13
2018-02-23T13:08:02.469Z,23.40
2018-02-23T13:10:30.026Z,11.38
2018-02-23T13:12:57.570Z,19.02
2018-02-23T13:15:25.126Z,11.70
2018-02-23T13:17:52.677Z,12.35
2018-02-23T13:20:21.032Z,11.80
2018-02-23T13:22:48.870Z,10.55
2018-02-23T13:25:16.461Z,21.23
2018-02-23T13:27:49.635Z,14.60
2018-02-23T13:30:17.306Z,9.68
2018-02-23T13:32:44.883Z,12.27
2018-02-23T13:35:12.444Z,11.90
2018-02-23T13:37:40.010Z,11.32
2018-02-23T13:40:07.569Z,13.43
2018-02-23T13:42:35.867Z,10.02
2018-02-23T13:45:04.494Z,11.98
2018-02-23T13:47:32.342Z,7.95
2018-02-23T13:49:59.965Z,10.80
2018-02-23T13:52:27.524Z,10.23
2018-02-23T13:54:56.186Z,11.63
2018-02-23T13:57:23.764Z,12.27
2018-02-23T13:59:51.426Z,13.35
2018-02-23T14:02:19.993Z,12.15
2018-02-23T14:04:47.554Z,8.05
2018-02-23T14:07:20.887Z,11.68
2018-02-23T14:09:48.452Z,7.35
2018-02-23T14:12:16.004Z,11.82
2018-02-23T14:14:43.583Z,9.88
2018-02-23T14:17:11.116Z,11.77
2018-02-23T14:19:38.661Z,12.73
2018-02-23T14:22:06.279Z,8.15
2018-02-23T14:24:34.607Z,10.25
2018-02-23T14:27:02.171Z,12.00
2018-02-23T14:29:29.739Z,9.85
2018-02-23T14:31:58.140Z,11.80
2018-02-23T14:34:25.780Z,9.30
2018-02-23T14:36:53.300Z,9.77
2018-02-23T14:39:21.031Z,9.60
2018-02-23T14:41:48.529Z,10.23
2018-02-23T14:44:16.118Z,10.20
2018-02-23T14:46:44.644Z,12.90
2018-02-23T14:49:20.222Z,15.05
2018-02-23T14:51:48.533Z,10.90
2018-02-23T14:54:16.913Z,23.48
2018-02-23T14:56:44.520Z,8.10
2018-02-23T14:59:12.963Z,13.20
2018-02-23T15:01:41.450Z,12.70
2018-02-23T15:04:09.204Z,9.82
2018-02-23T15:06:37.625Z,9.10
2018-02-23T15:09:05.198Z,9.63
2018-02-23T15:11:32.806Z,8.25
2018-02-23T15:14:01.907Z,11.63
2018-02-23T15:16:31.075Z,13.70
2018-02-23T15:18:58.684Z,9.10
2018-02-23T15:21:26.551Z,11.43
2018-02-23T15:23:54.066Z,10.60
2018-02-23T15:26:21.770Z,13.35
2018-02-23T15:28:49.334Z,12.02
2018-02-23T15:31:28.657Z,10.95
2018-02-23T15:33:56.198Z,11.57
2018-02-23T15:36:23.802Z,11.20
2018-02-23T15:38:51.430Z,9.25
2018-02-23T15:41:19.795Z,13.50
2018-02-23T15:43:47.417Z,9.85
2018-02-23T15:46:14.990Z,11.63
2018-02-23T15:48:48.261Z,11.15
2018-02-23T15:51:21.524Z,13.38
2018-02-23T15:53:49.089Z,15.65
2018-02-23T15:56:16.685Z,11.75
2018-02-23T15:58:45.037Z,13.80
2018-02-23T16:01:12.653Z,10.50
2018-02-23T16:03:40.266Z,18.42
2018-02-23T16:06:07.848Z,11.93
2018-02-23T16:08:35.413Z,13.65
2018-02-23T16:11:02.998Z,13.60
2018-02-23T16:13:30.580Z,13.45
2018-02-23T16:15:58.126Z,14.65
2018-02-23T16:18:25.664Z,13.45
2018-02-23T16:20:53.267Z,21.45
2018-02-23T16:23:20.818Z,15.13
2018-02-23T16:25:49.125Z,13.15
2018-02-23T16:28:16.771Z,16.08
2018-02-23T16:30:44.411Z,17.42
2018-02-23T16:33:12.013Z,16.45
2018-02-23T16:35:39.691Z,16.73
2018-02-23T16:38:07.244Z,17.00
2018-02-23T16:40:35.567Z,19.23
2018-02-23T16:43:03.978Z,24.40
2018-02-23T16:45:31.550Z,14.23
2018-02-23T16:48:00.023Z,19.12
2018-02-23T16:50:27.659Z,16.35
2018-02-23T16:52:55.978Z,17.98
2018-02-23T16:55:23.569Z,20.42
2018-02-23T16:57:51.085Z,18.85
2018-02-23T17:00:18.734Z,20.73
2018-02-23T17:02:46.315Z,20.25
2018-02-23T17:05:13.887Z,25.62
2018-02-23T17:07:42.322Z,19.10
2018-02-23T17:10:09.917Z,23.00
2018-02-23T17:12:37.532Z,32.95
2018-02-23T17:15:05.929Z,13.95
2018-02-23T17:17:33.593Z,18.60
2018-02-23T17:20:01.155Z,18.92
2018-02-23T17:22:29.642Z,18.98
2018-02-23T17:24:57.315Z,13.13
2018-02-23T17:27:24.896Z,20.35
2018-02-23T17:29:52.615Z,20.85
2018-02-23T17:32:20.212Z,24.60
2018-02-23T17:34:47.857Z,25.65
2018-02-23T17:37:15.441Z,17.30
2018-02-23T17:39:43.874Z,20.27
2018-02-23T17:42:11.474Z,22.83
2018-02-23T17:44:40.207Z,24.73
2018-02-23T17:47:08.585Z,19.62
2018-02-23T17:49:36.163Z,19.52
2018-02-23T17:52:03.775Z,25.20
2018-02-23T17:54:31.362Z,23.30
2018-02-23T17:56:59.011Z,19.48
2018-02-23T17:59:26.612Z,23.50
2018-02-23T18:01:54.178Z,24.77
2018-02-23T18:04:21.778Z,24.08
2018-02-23T18:06:49.331Z,26.20
2018-02-23T18:09:16.938Z,23.08
2018-02-23T18:11:44.511Z,21.80
2018-02-23T18:14:12.103Z,25.30
2018-02-23T18:16:39.671Z,23.02
2018-02-23T18:19:07.298Z,24.48
2018-02-23T18:21:34.997Z,27.20
2018-02-23T18:24:02.671Z,27.08
2018-02-23T18:26:30.717Z,34.42
2018-02-23T18:28:59.065Z,21.90
2018-02-23T18:31:26.691Z,27.17
2018-02-23T18:33:55.053Z,25.60
2018-02-23T18:36:22.622Z,28.40
2018-02-23T18:38:50.161Z,23.83
2018-02-23T18:41:17.754Z,28.67
2018-02-23T18:43:45.332Z,26.95
2018-02-23T18:46:13.636Z,26.45
2018-02-23T18:48:41.252Z,26.90
2018-02-23T18:51:09.586Z,33.33
2018-02-23T18:53:37.290Z,23.12
2018-02-23T18:56:05.629Z,21.55
2018-02-23T18:58:33.939Z,28.30
2018-02-23T19:01:02.260Z,27.27
2018-02-23T19:03:29.825Z,25.90
2018-02-23T19:05:57.397Z,26.95
2018-02-23T19:08:25.024Z,25.90
2018-02-23T19:10:52.631Z,23.02
2018-02-23T19:13:20.285Z,25.50
2018-02-23T19:15:48.610Z,33.58
2018-02-23T19:18:16.200Z,30.70
2018-02-23T19:20:43.774Z,23.65
2018-02-23T19:23:11.362Z,28.12
2018-02-23T19:25:38.937Z,29.50
2018-02-23T19:28:06.501Z,24.42
2018-02-23T19:30:34.090Z,26.42
2018-02-23T19:33:01.728Z,21.27
2018-02-23T19:35:30.018Z,26.55
2018-02-23T19:37:58.449Z,28.77
2018-02-23T19:40:26.068Z,21.12
2018-02-23T19:42:53.662Z,29.35
2018-02-23T19:45:21.235Z,32.25
2018-02-23T19:47:48.867Z,26.50
2018-02-23T19:50:16.460Z,28.95
2018-02-23T19:52:43.993Z,22.70
2018-02-23T19:55:11.607Z,23.05
2018-02-23T19:57:39.186Z,22.92
2018-02-23T20:00:06.864Z,24.75
2018-02-23T20:02:35.187Z,20.35
2018-02-23T20:05:02.743Z,26.48
2018-02-23T20:07:30.392Z,23.75
2018-02-23T20:09:57.941Z,27.25
2018-02-23T20:12:25.543Z,22.75
2018-02-23T20:14:53.122Z,27.67
2018-02-23T20:17:20.692Z,19.67
2018-02-23T20:19:48.308Z,24.92
2018-02-23T20:22:15.930Z,21.52
2018-02-23T20:24:43.532Z,24.90
2018-02-23T20:27:11.178Z,23.52
2018-02-23T20:29:39.143Z,24.12
2018-02-23T20:32:06.752Z,22.33
2018-02-23T20:34:34.311Z,24.77
2018-02-23T20:37:01.923Z,25.98
2018-02-23T20:39:29.495Z,20.10
2018-02-23T20:41:57.203Z,20.12
2018-02-23T20:44:24.861Z,18.27
2018-02-23T20:46:52.420Z,22.23
2018-02-23T20:49:20.033Z,19.12
2018-02-23T20:51:47.609Z,24.98
2018-02-23T20:54:15.324Z,24.42
2018-02-23T20:56:42.943Z,24.08
2018-02-23T20:59:10.548Z,22.75
2018-02-23T21:01:38.246Z,17.92
2018-02-23T21:04:06.954Z,19.35
2018-02-23T21:06:35.366Z,29.02
2018-02-23T21:09:03.314Z,20.85
2018-02-23T21:11:30.891Z,19.73
2018-02-23T21:13:58.504Z,25.35
2018-02-23T21:16:26.085Z,22.08
2018-02-23T21:18:53.678Z,20.83
2018-02-23T21:21:21.368Z,24.73
2018-02-23T21:23:48.935Z,16.75
2018-02-23T21:26:16.529Z,22.05
2018-02-23T21:28:44.149Z,15.18
2018-02-23T21:31:12.648Z,22.70
2018-02-23T21:33:40.246Z,30.62
2018-02-23T21:36:07.833Z,23.85
2018-02-23T21:38:36.100Z,23.67
2018-02-23T21:41:04.480Z,23.75
2018-02-23T21:43:32.089Z,21.95
2018-02-23T21:45:59.637Z,25.37
2018-02-23T21:48:27.202Z,20.70
2018-02-23T21:50:54.779Z,24.55
2018-02-23T21:53:23.526Z,23.50
2018-02-23T21:55:52.098Z,29.87
2018-02-23T21:58:23.680Z,22.40
2018-02-23T22:00:51.318Z,18.33
2018-02-23T22:03:19.753Z,19.20
2018-02-23T22:05:47.318Z,16.73
2018-02-23T22:08:14.949Z,18.92
2018-02-23T22:10:42.871Z,20.17
2018-02-23T22:13:10.488Z,23.55
2018-02-23T22:15:38.112Z,24.63
2018-02-23T22:18:06.375Z,18.60
2018-02-23T22:20:34.062Z,23.33
2018-02-23T22:23:01.633Z,21.40
2018-02-23T22:25:29.217Z,24.05
2018-02-23T22:27:57.269Z,22.05
2018-02-23T22:30:24.938Z,24.90
2018-02-23T22:32:52.542Z,23.17
2018-02-23T22:35:20.238Z,24.33
2018-02-23T22:37:47.881Z,22.67
2018-02-23T22:40:17.865Z,21.52
2018-02-23T22:42:45.564Z,28.35
2018-02-23T22:45:14.009Z,23.17
2018-02-23T22:47:41.628Z,18.50
2018-02-23T22:50:09.247Z,21.60
2018-02-23T22:52:36.814Z,23.12
2018-02-23T22:55:04.360Z,28.02
2018-02-23T22:57:31.932Z,27.13
2018-02-23T23:00:00.844Z,21.37
2018-02-23T23:02:28.475Z,23.80
2018-02-23T23:04:56.106Z,24.15
2018-02-23T23:07:23.778Z,25.12
2018-02-23T23:09:51.366Z,20.27
2018-02-23T23:12:19.918Z,26.48
2018-02-23T23:14:48.273Z,17.08
2018-02-23T23:17:17.108Z,20.58
2018-02-23T23:19:45.301Z,17.30
2018-02-23T23:22:12.920Z,22.87
2018-02-23T23:24:40.621Z,25.08
2018-02-23T23:27:08.332Z,21.17
2018-02-23T23:29:40.011Z,21.62
2018-02-23T23:32:13.530Z,22.10
2018-02-23T23:34:41.226Z,21.77
2018-02-23T23:37:08.854Z,27.70
2018-02-23T23:39:37.190Z,25.33
2018-02-23T23:42:06.111Z,20.10
2018-02-23T23:44:35.090Z,25.10
2018-02-23T23:47:03.541Z,32.75
2018-02-23T23:49:45.162Z,29.20
2018-02-23T23:52:14.425Z,26.77
2018-02-23T23:54:42.637Z,25.67
2018-02-23T23:57:11.891Z,24.30
2018-02-23T23:59:39.523Z,25.65
